createdAt,value
2017-06-05T00:00:39.925Z,12.83
2017-06-05T00:01:51.893Z,12.86
2017-06-05T00:03:04.413Z,12.87
2017-06-05T00:04:16.609Z,12.9
2017-06-05T00:05:29.155Z,12.94
2017-06-05T00:06:41.679Z,12.95
2017-06-05T00:07:54.222Z,12.98
2017-06-05T00:09:06.164Z,13.01
2017-06-05T00:10:18.689Z,13.03
2017-06-05T00:11:30.634Z,12.99
2017-06-05T00:12:42.858Z,12.95
2017-06-05T00:13:55.398Z,13.02
2017-06-05T00:15:07.644Z,13.02
2017-06-05T00:16:20.164Z,13.11
2017-06-05T00:17:32.714Z,13.19
2017-06-05T00:18:44.635Z,13.17
2017-06-05T00:19:57.155Z,13.19
2017-06-05T00:21:09.381Z,13.09
2017-06-05T00:22:21.942Z,13.23
2017-06-05T00:23:34.173Z,13.19
2017-06-05T00:24:46.117Z,13.27
2017-06-05T00:25:58.039Z,13.31
2017-06-05T00:27:10.568Z,13.23
2017-06-05T00:28:23.080Z,13.3
2017-06-05T00:29:35.582Z,13.27
2017-06-05T00:30:48.119Z,13.27
2017-06-05T00:32:00.633Z,13.31
2017-06-05T00:33:12.886Z,13.23
2017-06-05T00:34:25.411Z,13.28
2017-06-05T00:35:37.962Z,13.26
2017-06-05T00:36:49.577Z,13.3
2017-06-05T00:38:01.820Z,13.28
2017-06-05T00:39:14.365Z,13.26
2017-06-05T00:40:26.605Z,13.24
2017-06-05T00:41:39.139Z,13.2
2017-06-05T00:42:51.658Z,13.23
2017-06-05T00:44:04.204Z,13.21
2017-06-05T00:45:16.499Z,13.16
2017-06-05T00:46:29.062Z,13.2
2017-06-05T00:47:41.604Z,13.17
2017-06-05T00:48:54.136Z,13.13
2017-06-05T00:50:06.400Z,13.12
2017-06-05T00:51:18.675Z,12.99
2017-06-05T00:52:31.196Z,13.03
2017-06-05T00:53:43.137Z,13.05
2017-06-05T00:54:55.365Z,12.98
2017-06-05T00:56:07.285Z,12.95
2017-06-05T00:57:19.263Z,13.01
2017-06-05T00:58:31.821Z,12.94
2017-06-05T00:59:44.339Z,12.93
2017-06-05T01:00:56.571Z,12.98
2017-06-05T01:02:09.145Z,12.95
2017-06-05T01:03:21.681Z,12.99
2017-06-05T01:04:34.186Z,12.91
2017-06-05T01:05:46.698Z,12.91
2017-06-05T01:06:59.223Z,12.94
2017-06-05T01:08:11.738Z,12.93
2017-06-05T01:09:23.988Z,12.95
2017-06-05T01:10:36.506Z,12.91
2017-06-05T01:11:49.030Z,12.93
2017-06-05T01:13:01.551Z,12.94
2017-06-05T01:14:14.090Z,12.98
2017-06-05T01:15:26.322Z,12.98
2017-06-05T01:16:38.893Z,12.99
2017-06-05T01:17:51.117Z,13.02
2017-06-05T01:19:03.656Z,13.01
2017-06-05T01:20:15.556Z,13.02
2017-06-05T01:21:28.091Z,12.99
2017-06-05T01:22:40.619Z,13.03
2017-06-05T01:23:52.866Z,13.09
2017-06-05T01:25:05.431Z,13.06
2017-06-05T01:26:17.957Z,13.02
2017-06-05T01:27:30.478Z,13.01
2017-06-05T01:28:42.727Z,13.11
2017-06-05T01:29:54.970Z,13.2
2017-06-05T01:31:07.520Z,13.19
2017-06-05T01:32:20.010Z,13.09
2017-06-05T01:33:31.649Z,13.2
2017-06-05T01:34:44.199Z,13.2
2017-06-05T01:35:56.720Z,13.27
2017-06-05T01:37:09.244Z,13.23
2017-06-05T01:38:21.141Z,13.27
2017-06-05T01:39:33.679Z,13.26
2017-06-05T01:40:46.235Z,13.27
2017-06-05T01:41:58.453Z,13.27
2017-06-05T01:43:10.667Z,13.36
2017-06-05T01:44:23.212Z,13.36
2017-06-05T01:45:35.441Z,13.39
2017-06-05T01:46:47.657Z,13.49
2017-06-05T01:47:59.580Z,13.4
2017-06-05T01:49:11.507Z,13.42
2017-06-05T01:50:24.056Z,13.49
2017-06-05T01:51:36.579Z,13.46
2017-06-05T01:52:49.133Z,13.49
2017-06-05T01:54:01.663Z,13.43
2017-06-05T01:55:14.188Z,13.57
2017-06-05T01:56:26.454Z,13.54
2017-06-05T01:57:38.993Z,13.54
2017-06-05T01:58:51.541Z,13.58
2017-06-05T02:00:03.763Z,13.55
2017-06-05T02:01:15.713Z,13.6
2017-06-05T02:02:28.255Z,13.62
2017-06-05T02:03:40.801Z,13.6
2017-06-05T02:04:53.055Z,13.55
2017-06-05T02:06:05.597Z,13.55
2017-06-05T02:07:18.113Z,13.61
2017-06-05T02:08:30.338Z,13.67
2017-06-05T02:09:42.855Z,13.61
2017-06-05T02:10:55.411Z,13.6
2017-06-05T02:12:07.952Z,13.75
2017-06-05T02:13:20.516Z,13.61
2017-06-05T02:14:33.062Z,13.68
2017-06-05T02:15:45.314Z,13.65
2017-06-05T02:16:57.539Z,13.68
2017-06-05T02:18:09.778Z,13.67
2017-06-05T02:19:22.319Z,13.64
2017-06-05T02:20:34.865Z,13.65
2017-06-05T02:21:47.390Z,13.68
2017-06-05T02:22:59.936Z,13.7
2017-06-05T02:24:12.466Z,13.64
2017-06-05T02:25:25.023Z,13.7
2017-06-05T02:26:37.529Z,13.68
2017-06-05T02:27:50.078Z,13.76
2017-06-05T02:29:02.316Z,13.75
2017-06-05T02:30:14.594Z,13.61
2017-06-05T02:31:27.132Z,13.75
2017-06-05T02:32:39.682Z,13.7
2017-06-05T02:33:52.246Z,13.68
2017-06-05T02:35:04.474Z,13.68
2017-06-05T02:36:17.000Z,13.75
2017-06-05T02:37:29.595Z,13.73
2017-06-05T02:38:41.831Z,13.7
2017-06-05T02:39:54.060Z,13.71
2017-06-05T02:41:05.998Z,13.7
2017-06-05T02:42:17.950Z,13.83
2017-06-05T02:43:30.466Z,13.71
2017-06-05T02:44:42.992Z,13.76
2017-06-05T02:45:55.541Z,13.83
2017-06-05T02:47:07.804Z,13.79
2017-06-05T02:48:20.060Z,13.83
2017-06-05T02:49:32.553Z,13.76
2017-06-05T02:50:44.472Z,13.73
2017-06-05T02:51:56.995Z,13.68
2017-06-05T02:53:09.530Z,13.73
2017-06-05T02:54:22.088Z,13.68
2017-06-05T02:55:34.606Z,13.75
2017-06-05T02:56:47.146Z,13.78
2017-06-05T02:57:59.689Z,13.73
2017-06-05T02:59:12.236Z,13.76
2017-06-05T03:00:24.461Z,13.7
2017-06-05T03:01:37.001Z,13.85
2017-06-05T03:02:49.261Z,13.68
2017-06-05T03:04:01.800Z,13.75
2017-06-05T03:05:14.564Z,13.76
2017-06-05T03:06:27.092Z,13.76
2017-06-05T03:07:39.606Z,13.75
2017-06-05T03:08:51.838Z,13.7
2017-06-05T03:10:04.401Z,13.85
2017-06-05T03:11:16.644Z,13.85
2017-06-05T03:12:28.895Z,13.78
2017-06-05T03:13:41.448Z,13.82
2017-06-05T03:14:53.989Z,13.76
2017-06-05T03:16:06.191Z,13.82
2017-06-05T03:17:18.736Z,13.83
2017-06-05T03:18:31.273Z,13.85
2017-06-05T03:19:43.800Z,13.82
2017-06-05T03:20:56.036Z,13.78
2017-06-05T03:22:08.571Z,13.86
2017-06-05T03:23:21.106Z,13.83
2017-06-05T03:24:33.359Z,13.83
2017-06-05T03:25:45.906Z,13.89
2017-06-05T03:26:58.149Z,13.91
2017-06-05T03:28:10.369Z,13.91
2017-06-05T03:29:22.908Z,13.91
2017-06-05T03:30:35.437Z,13.85
2017-06-05T03:31:47.657Z,13.85
2017-06-05T03:33:00.173Z,13.82
2017-06-05T03:34:12.700Z,13.83
2017-06-05T03:35:25.220Z,13.94
2017-06-05T03:36:37.744Z,13.83
2017-06-05T03:37:50.287Z,13.86
2017-06-05T03:39:02.836Z,13.85
2017-06-05T03:40:15.378Z,13.87
2017-06-05T03:41:27.603Z,13.8
2017-06-05T03:42:40.138Z,13.89
2017-06-05T03:43:52.391Z,13.87
2017-06-05T03:45:04.614Z,13.95
2017-06-05T03:46:17.153Z,13.86
2017-06-05T03:47:29.400Z,13.91
2017-06-05T03:48:41.941Z,13.97
2017-06-05T03:49:53.897Z,13.95
2017-06-05T03:51:06.112Z,13.97
2017-06-05T03:52:18.067Z,13.98
2017-06-05T03:53:30.334Z,13.98
2017-06-05T03:54:42.879Z,13.95
2017-06-05T03:55:55.096Z,14
2017-06-05T03:57:07.616Z,14.04
2017-06-05T03:58:19.846Z,14.03
2017-06-05T03:59:32.414Z,14.11
2017-06-05T04:00:44.938Z,14.08
2017-06-05T04:01:57.183Z,14.11
2017-06-05T04:03:09.442Z,14.08
2017-06-05T04:04:21.993Z,14.11
2017-06-05T04:05:34.235Z,14.22
2017-06-05T04:06:46.809Z,14.18
2017-06-05T04:07:59.052Z,14.26
2017-06-05T04:09:11.308Z,14.18
2017-06-05T04:10:23.826Z,14.23
2017-06-05T04:11:36.050Z,14.18
2017-06-05T04:12:48.588Z,14.33
2017-06-05T04:14:01.139Z,14.33
2017-06-05T04:15:13.660Z,14.3
2017-06-05T04:16:26.452Z,14.34
2017-06-05T04:17:38.994Z,14.43
2017-06-05T04:18:51.542Z,14.45
2017-06-05T04:20:04.090Z,14.41
2017-06-05T04:21:16.931Z,14.49
2017-06-05T04:22:29.435Z,14.44
2017-06-05T04:23:41.961Z,14.53
2017-06-05T04:24:54.519Z,14.55
2017-06-05T04:26:07.028Z,14.53
2017-06-05T04:27:18.692Z,14.61
2017-06-05T04:28:31.218Z,14.61
2017-06-05T04:29:43.453Z,14.51
2017-06-05T04:30:55.974Z,14.66
2017-06-05T04:32:08.755Z,14.59
2017-06-05T04:33:21.339Z,14.67
2017-06-05T04:34:33.601Z,14.7
2017-06-05T04:35:46.117Z,14.7
2017-06-05T04:36:58.033Z,14.59
2017-06-05T04:38:10.281Z,14.74
2017-06-05T04:39:22.814Z,14.73
2017-06-05T04:40:35.395Z,14.74
2017-06-05T04:41:47.921Z,14.78
2017-06-05T04:43:00.461Z,14.79
2017-06-05T04:44:13.004Z,14.79
2017-06-05T04:45:25.250Z,14.81
2017-06-05T04:46:37.795Z,14.82
2017-06-05T04:47:50.053Z,14.79
2017-06-05T04:49:02.325Z,14.89
2017-06-05T04:50:14.866Z,14.89
2017-06-05T04:51:27.387Z,14.86
2017-06-05T04:52:39.937Z,14.89
2017-06-05T04:53:52.500Z,14.97
2017-06-05T04:55:05.021Z,14.94
2017-06-05T04:56:17.563Z,14.99
2017-06-05T04:57:30.112Z,15.07
2017-06-05T04:58:42.691Z,15.07
2017-06-05T04:59:55.238Z,15.11
2017-06-05T05:01:07.484Z,15.17
2017-06-05T05:02:19.718Z,15.17
2017-06-05T05:03:31.675Z,15.14
2017-06-05T05:04:43.926Z,15.29
2017-06-05T05:05:56.459Z,15.3
2017-06-05T05:07:08.964Z,15.41
2017-06-05T05:08:20.900Z,15.32
2017-06-05T05:09:33.451Z,15.35
2017-06-05T05:10:45.989Z,15.48
2017-06-05T05:11:58.218Z,15.51
2017-06-05T05:13:10.759Z,15.51
2017-06-05T05:14:22.988Z,15.66
2017-06-05T05:15:35.208Z,15.59
2017-06-05T05:16:47.426Z,15.67
2017-06-05T05:17:59.646Z,15.7
2017-06-05T05:19:11.889Z,15.81
2017-06-05T05:20:24.157Z,15.99
2017-06-05T05:21:36.686Z,16.06
2017-06-05T05:22:49.199Z,16.25
2017-06-05T05:24:01.747Z,16.41
2017-06-05T05:25:13.994Z,16.46
2017-06-05T05:26:26.248Z,16.66
2017-06-05T05:27:38.807Z,16.79
2017-06-05T05:28:51.336Z,16.98
2017-06-05T05:30:03.252Z,17.04
2017-06-05T05:31:15.819Z,17.09
2017-06-05T05:32:28.344Z,17.09
2017-06-05T05:33:40.568Z,17.17
2017-06-05T05:34:52.815Z,17.22
2017-06-05T05:36:05.357Z,17.28
2017-06-05T05:37:17.879Z,17.37
2017-06-05T05:38:30.419Z,17.35
2017-06-05T05:39:42.350Z,17.38
2017-06-05T05:40:54.286Z,17.38
2017-06-05T05:42:06.533Z,17.34
2017-06-05T05:43:19.087Z,17.39
2017-06-05T05:44:31.319Z,17.34
2017-06-05T05:45:43.874Z,17.41
2017-06-05T05:46:56.117Z,17.39
2017-06-05T05:48:08.678Z,17.37
2017-06-05T05:49:21.209Z,17.39
2017-06-05T05:50:33.740Z,17.35
2017-06-05T05:51:46.236Z,17.42
2017-06-05T05:52:58.778Z,17.39
2017-06-05T05:54:10.996Z,17.41
2017-06-05T05:55:23.224Z,17.38
2017-06-05T05:56:35.462Z,17.42
2017-06-05T05:57:47.684Z,17.47
2017-06-05T05:59:00.208Z,17.5
2017-06-05T06:00:12.772Z,17.42
2017-06-05T06:01:25.293Z,17.39
2017-06-05T06:02:37.838Z,17.6
2017-06-05T06:03:50.084Z,17.52
2017-06-05T06:05:02.356Z,17.57
2017-06-05T06:06:14.002Z,17.56
2017-06-05T06:07:26.557Z,17.63
2017-06-05T06:08:38.775Z,17.75
2017-06-05T06:09:51.040Z,17.79
2017-06-05T06:11:03.289Z,17.9
2017-06-05T06:12:15.817Z,18.03
2017-06-05T06:13:27.754Z,18
2017-06-05T06:14:39.986Z,18.16
2017-06-05T06:15:52.543Z,18.3
2017-06-05T06:17:04.792Z,18.37
2017-06-05T06:18:17.335Z,18.36
2017-06-05T06:19:29.883Z,18.39
2017-06-05T06:20:42.132Z,18.52
2017-06-05T06:21:54.077Z,18.67
2017-06-05T06:23:06.307Z,18.86
2017-06-05T06:24:18.866Z,19
2017-06-05T06:25:31.119Z,19.27
2017-06-05T06:26:43.664Z,19.26
2017-06-05T06:27:56.210Z,19.44
2017-06-05T06:29:08.473Z,19.56
2017-06-05T06:30:20.720Z,19.66
2017-06-05T06:31:33.473Z,19.63
2017-06-05T06:32:46.024Z,19.78
2017-06-05T06:33:58.592Z,19.59
2017-06-05T06:35:10.235Z,19.6
2017-06-05T06:36:22.749Z,19.63
2017-06-05T06:37:34.970Z,19.6
2017-06-05T06:38:47.224Z,19.64
2017-06-05T06:39:59.465Z,19.66
2017-06-05T06:41:12.015Z,19.63
2017-06-05T06:42:24.264Z,19.62
2017-06-05T06:43:36.828Z,19.71
2017-06-05T06:44:48.732Z,19.71
2017-06-05T06:46:01.273Z,19.78
2017-06-05T06:47:13.212Z,19.9
2017-06-05T06:48:25.459Z,19.97
2017-06-05T06:49:38.029Z,19.94
2017-06-05T06:50:50.278Z,20.03
2017-06-05T06:52:02.828Z,20.03
2017-06-05T06:53:15.367Z,20.12
2017-06-05T06:54:27.948Z,20.3
2017-06-05T06:55:40.212Z,20.3
2017-06-05T06:56:52.761Z,20.42
2017-06-05T06:58:04.401Z,20.55
2017-06-05T06:59:16.929Z,20.64
2017-06-05T07:00:28.871Z,20.77
2017-06-05T07:01:41.424Z,20.85
2017-06-05T07:02:53.385Z,21.03
2017-06-05T07:04:05.616Z,21.22
2017-06-05T07:05:18.215Z,21.37
2017-06-05T07:06:30.754Z,21.58
2017-06-05T07:07:43.304Z,21.74
2017-06-05T07:08:55.526Z,22.01
2017-06-05T07:10:07.460Z,22.08
2017-06-05T07:11:19.709Z,22.36
2017-06-05T07:12:31.954Z,22.58
2017-06-05T07:13:44.184Z,22.77
2017-06-05T07:14:56.423Z,22.95
2017-06-05T07:16:08.646Z,23.21
2017-06-05T07:17:20.911Z,23.36
2017-06-05T07:18:33.480Z,23.33
2017-06-05T07:19:45.733Z,23.66
2017-06-05T07:20:58.273Z,23.92
2017-06-05T07:22:10.522Z,24.07
2017-06-05T07:23:23.065Z,24.07
2017-06-05T07:24:35.610Z,24.4
2017-06-05T07:25:47.843Z,24.47
2017-06-05T07:26:59.810Z,24.63
2017-06-05T07:28:12.353Z,24.84
2017-06-05T07:29:24.327Z,25.04
2017-06-05T07:30:36.876Z,25.19
2017-06-05T07:31:49.468Z,25.33
2017-06-05T07:33:02.041Z,25.43
2017-06-05T07:34:14.581Z,25.52
2017-06-05T07:35:27.156Z,25.59
2017-06-05T07:36:39.398Z,25.63
2017-06-05T07:37:51.017Z,25.73
2017-06-05T07:39:03.545Z,25.76
2017-06-05T07:40:15.811Z,25.66
2017-06-05T07:41:28.341Z,25.63
2017-06-05T07:42:40.882Z,25.68
2017-06-05T07:43:53.421Z,25.88
2017-06-05T07:45:05.649Z,25.93
2017-06-05T07:46:18.195Z,26.08
2017-06-05T07:47:30.445Z,26.24
2017-06-05T07:48:42.409Z,26.18
2017-06-05T07:49:54.650Z,26.36
2017-06-05T07:51:07.205Z,26.34
2017-06-05T07:52:19.442Z,26.37
2017-06-05T07:53:31.988Z,26.52
2017-06-05T07:54:44.270Z,26.55
2017-06-05T07:55:56.514Z,26.55
2017-06-05T07:57:09.054Z,26.64
2017-06-05T07:58:21.908Z,26.76
2017-06-05T07:59:34.496Z,26.73
2017-06-05T08:00:47.071Z,26.91
2017-06-05T08:01:59.638Z,26.98
2017-06-05T08:03:12.209Z,27.07
2017-06-05T08:04:24.783Z,27.19
2017-06-05T08:05:37.325Z,27.28
2017-06-05T08:06:49.272Z,27.2
2017-06-05T08:08:01.213Z,27.15
2017-06-05T08:09:13.784Z,27.25
2017-06-05T08:10:26.355Z,27.22
2017-06-05T08:11:38.916Z,27.29
2017-06-05T08:12:51.155Z,27.3
2017-06-05T08:14:03.719Z,27.38
2017-06-05T08:15:16.246Z,27.47
2017-06-05T08:16:28.509Z,27.38
2017-06-05T08:17:40.757Z,27.5
2017-06-05T08:18:53.306Z,27.44
2017-06-05T08:20:05.498Z,27.68
2017-06-05T08:21:17.723Z,27.68
2017-06-05T08:22:30.265Z,27.79
2017-06-05T08:23:42.847Z,27.85
2017-06-05T08:24:55.415Z,28.09
2017-06-05T08:26:07.678Z,28.08
2017-06-05T08:27:19.927Z,28.15
2017-06-05T08:28:32.152Z,28.13
2017-06-05T08:29:44.400Z,28.08
2017-06-05T08:30:56.936Z,28.2
2017-06-05T08:32:09.465Z,28.3
2017-06-05T08:33:21.989Z,28.4
2017-06-05T08:34:34.552Z,28.38
2017-06-05T08:35:46.799Z,28.45
2017-06-05T08:36:59.327Z,28.28
2017-06-05T08:38:11.891Z,28.34
2017-06-05T08:39:24.432Z,28.45
2017-06-05T08:40:37.036Z,28.45
2017-06-05T08:41:49.584Z,28.53
2017-06-05T08:43:02.133Z,28.71
2017-06-05T08:44:14.698Z,28.78
2017-06-05T08:45:26.924Z,28.78
2017-06-05T08:46:39.162Z,28.83
2017-06-05T08:47:51.716Z,28.87
2017-06-05T08:49:04.275Z,28.92
2017-06-05T08:50:16.557Z,28.96
2017-06-05T08:51:28.824Z,28.96
2017-06-05T08:52:41.398Z,28.75
2017-06-05T08:53:53.362Z,28.71
2017-06-05T08:55:05.632Z,28.72
2017-06-05T08:56:18.179Z,28.72
2017-06-05T08:57:30.433Z,28.71
2017-06-05T08:58:43.000Z,28.82
2017-06-05T08:59:55.276Z,28.93
2017-06-05T09:01:07.820Z,29
2017-06-05T09:02:20.110Z,29.07
2017-06-05T09:03:32.117Z,29.03
2017-06-05T09:04:44.372Z,29.07
2017-06-05T09:05:56.346Z,28.9
2017-06-05T09:07:08.893Z,28.97
2017-06-05T09:08:21.463Z,28.89
2017-06-05T09:09:34.005Z,28.8
2017-06-05T09:10:46.255Z,28.7
2017-06-05T09:11:58.822Z,28.78
2017-06-05T09:13:10.797Z,28.8
2017-06-05T09:14:23.664Z,28.93
2017-06-05T09:15:35.943Z,28.94
2017-06-05T09:16:48.493Z,29
2017-06-05T09:18:01.059Z,28.9
2017-06-05T09:19:13.047Z,28.86
2017-06-05T09:20:25.598Z,28.83
2017-06-05T09:21:37.547Z,28.93
2017-06-05T09:22:50.099Z,29.06
2017-06-05T09:24:02.340Z,29.24
2017-06-05T09:25:15.152Z,29.13
2017-06-05T09:26:27.428Z,29.28
2017-06-05T09:27:39.652Z,29.37
2017-06-05T09:28:51.598Z,29.4
2017-06-05T09:30:04.172Z,29.43
2017-06-05T09:31:16.460Z,29.47
2017-06-05T09:32:28.687Z,29.67
2017-06-05T09:33:41.249Z,29.43
2017-06-05T09:34:53.780Z,29.52
2017-06-05T09:36:06.030Z,29.55
2017-06-05T09:37:18.595Z,29.67
2017-06-05T09:38:31.160Z,29.67
2017-06-05T09:39:43.706Z,29.64
2017-06-05T09:40:55.958Z,29.61
2017-06-05T09:42:08.220Z,29.83
2017-06-05T09:43:20.470Z,29.68
2017-06-05T09:44:32.716Z,29.57
2017-06-05T09:45:44.991Z,29.32
2017-06-05T09:46:57.533Z,29.34
2017-06-05T09:48:10.100Z,28.96
2017-06-05T09:49:21.751Z,28.7
2017-06-05T09:50:34.342Z,28.35
2017-06-05T09:51:46.887Z,28.12
2017-06-05T09:52:58.537Z,27.94
2017-06-05T09:54:11.104Z,27.79
2017-06-05T09:55:23.350Z,27.72
2017-06-05T09:56:35.875Z,27.5
2017-06-05T09:57:48.420Z,27.3
2017-06-05T09:59:00.996Z,27.25
2017-06-05T10:00:13.235Z,27.13
2017-06-05T10:01:25.763Z,27.2
2017-06-05T10:02:38.312Z,27.28
2017-06-05T10:03:50.571Z,27.38
2017-06-05T10:05:03.121Z,27.48
2017-06-05T10:06:15.388Z,27.67
2017-06-05T10:07:27.917Z,28.04
2017-06-05T10:08:40.462Z,28.16
2017-06-05T10:09:52.715Z,28.37
2017-06-05T10:11:05.252Z,28.65
2017-06-05T10:12:17.518Z,28.96
2017-06-05T10:13:30.064Z,29.1
2017-06-05T10:14:42.340Z,29.35
2017-06-05T10:15:54.593Z,29.42
2017-06-05T10:17:06.829Z,29.68
2017-06-05T10:18:18.801Z,29.64
2017-06-05T10:19:31.068Z,29.71
2017-06-05T10:20:43.300Z,29.8
2017-06-05T10:21:55.826Z,29.8
2017-06-05T10:23:08.389Z,29.96
2017-06-05T10:24:20.652Z,30.01
2017-06-05T10:25:33.223Z,30.17
2017-06-05T10:26:45.772Z,30.38
2017-06-05T10:27:58.027Z,30.59
2017-06-05T10:29:10.611Z,30.89
2017-06-05T10:30:23.194Z,31.13
2017-06-05T10:31:35.738Z,31.33
2017-06-05T10:32:48.256Z,31.55
2017-06-05T10:34:00.803Z,31.72
2017-06-05T10:35:13.064Z,32.01
2017-06-05T10:36:25.595Z,32.17
2017-06-05T10:37:38.167Z,32.35
2017-06-05T10:38:50.713Z,32.46
2017-06-05T10:40:03.249Z,32.63
2017-06-05T10:41:15.808Z,32.63
2017-06-05T10:42:28.369Z,32.63
2017-06-05T10:43:40.940Z,32.48
2017-06-05T10:44:53.507Z,32.61
2017-06-05T10:46:05.757Z,32.42
2017-06-05T10:47:18.328Z,32.44
2017-06-05T10:48:30.902Z,32.45
2017-06-05T10:49:42.820Z,32.51
2017-06-05T10:50:54.791Z,32.73
2017-06-05T10:52:07.341Z,32.81
2017-06-05T10:53:19.908Z,32.9
2017-06-05T10:54:32.163Z,33.01
2017-06-05T10:55:44.749Z,32.83
2017-06-05T10:56:57.302Z,32.71
2017-06-05T10:58:09.537Z,32.59
2017-06-05T10:59:22.109Z,32.63
2017-06-05T11:00:34.655Z,32.56
2017-06-05T11:01:47.227Z,32.6
2017-06-05T11:03:00.025Z,32.59
2017-06-05T11:04:12.002Z,32.72
2017-06-05T11:05:23.970Z,32.75
2017-06-05T11:06:36.517Z,32.85
2017-06-05T11:07:49.066Z,32.83
2017-06-05T11:09:01.301Z,32.72
2017-06-05T11:10:13.250Z,32.46
2017-06-05T11:11:25.796Z,32.11
2017-06-05T11:12:38.338Z,31.73
2017-06-05T11:13:50.909Z,31.6
2017-06-05T11:15:03.463Z,31.44
2017-06-05T11:16:16.013Z,31.37
2017-06-05T11:17:28.598Z,31.18
2017-06-05T11:18:40.851Z,31.28
2017-06-05T11:19:53.125Z,31.17
2017-06-05T11:21:05.669Z,31.2
2017-06-05T11:22:17.910Z,31.37
2017-06-05T11:23:30.463Z,31.48
2017-06-05T11:24:42.423Z,31.6
2017-06-05T11:25:55.001Z,31.82
2017-06-05T11:27:07.542Z,31.93
2017-06-05T11:28:20.068Z,32.04
2017-06-05T11:29:32.588Z,32.3
2017-06-05T11:30:45.132Z,32.37
2017-06-05T11:31:57.656Z,32.37
2017-06-05T11:33:10.231Z,32.08
2017-06-05T11:34:22.818Z,32.01
2017-06-05T11:35:35.368Z,31.98
2017-06-05T11:36:47.909Z,31.98
2017-06-05T11:38:00.485Z,32.01
2017-06-05T11:39:12.751Z,32.04
2017-06-05T11:40:25.027Z,31.92
2017-06-05T11:41:37.577Z,31.86
2017-06-05T11:42:49.797Z,31.59
2017-06-05T11:44:02.386Z,31.51
2017-06-05T11:45:14.938Z,31.44
2017-06-05T11:46:27.499Z,31.33
2017-06-05T11:47:40.053Z,31.28
2017-06-05T11:48:52.323Z,31.2
2017-06-05T11:50:04.870Z,31.1
2017-06-05T11:51:17.446Z,30.92
2017-06-05T11:52:30.003Z,30.65
2017-06-05T11:53:42.560Z,30.59
2017-06-05T11:54:54.824Z,30.46
2017-06-05T11:56:07.374Z,30.46
2017-06-05T11:57:19.344Z,30.36
2017-06-05T11:58:31.893Z,30.18
2017-06-05T11:59:44.136Z,30.05
2017-06-05T12:00:56.661Z,29.89
2017-06-05T12:02:08.599Z,29.69
2017-06-05T12:03:20.874Z,29.62
2017-06-05T12:04:33.416Z,29.55
2017-06-05T12:05:45.987Z,29.58
2017-06-05T12:06:58.530Z,29.61
2017-06-05T12:08:10.458Z,29.68
2017-06-05T12:09:23.021Z,29.73
2017-06-05T12:10:35.575Z,29.69
2017-06-05T12:11:47.816Z,29.69
2017-06-05T12:13:00.349Z,29.62
2017-06-05T12:14:12.612Z,29.49
2017-06-05T12:15:25.163Z,29.3
2017-06-05T12:16:37.729Z,29.31
2017-06-05T12:17:49.992Z,29.07
2017-06-05T12:19:02.541Z,28.89
2017-06-05T12:20:15.098Z,28.94
2017-06-05T12:21:27.641Z,28.94
2017-06-05T12:22:39.584Z,28.97
2017-06-05T12:23:51.832Z,29.05
2017-06-05T12:25:04.076Z,29.16
2017-06-05T12:26:15.689Z,29.31
2017-06-05T12:27:28.271Z,29.34
2017-06-05T12:28:40.831Z,29.46
2017-06-05T12:29:53.363Z,29.65
2017-06-05T12:31:05.904Z,29.79
2017-06-05T12:32:17.871Z,29.86
2017-06-05T12:33:30.451Z,30.06
2017-06-05T12:34:42.711Z,30.08
2017-06-05T12:35:55.243Z,30.2
2017-06-05T12:37:07.506Z,30.32
2017-06-05T12:38:20.038Z,30.54
2017-06-05T12:39:32.270Z,30.71
2017-06-05T12:40:45.132Z,30.77
2017-06-05T12:41:57.373Z,30.86
2017-06-05T12:43:09.960Z,31.05
2017-06-05T12:44:22.206Z,31.11
2017-06-05T12:45:34.477Z,31.28
2017-06-05T12:46:46.748Z,31.28
2017-06-05T12:47:59.298Z,31.51
2017-06-05T12:49:11.263Z,31.72
2017-06-05T12:50:23.532Z,31.89
2017-06-05T12:51:36.090Z,32.09
2017-06-05T12:52:48.365Z,32.19
2017-06-05T12:54:00.932Z,32.24
2017-06-05T12:55:13.202Z,32.23
2017-06-05T12:56:25.737Z,32.29
2017-06-05T12:57:37.966Z,32.31
2017-06-05T12:58:50.507Z,32.48
2017-06-05T13:00:03.083Z,32.54
2017-06-05T13:01:14.995Z,32.73
2017-06-05T13:02:27.481Z,32.9
2017-06-05T13:03:40.024Z,32.93
2017-06-05T13:04:51.991Z,33.03
2017-06-05T13:06:04.229Z,32.9
2017-06-05T13:07:16.776Z,32.98
2017-06-05T13:08:29.330Z,32.79
2017-06-05T13:09:41.870Z,32.67
2017-06-05T13:10:54.100Z,32.39
2017-06-05T13:12:06.667Z,32.31
2017-06-05T13:13:19.187Z,31.89
2017-06-05T13:14:31.454Z,31.77
2017-06-05T13:15:44.009Z,31.55
2017-06-05T13:16:56.571Z,31.41
2017-06-05T13:18:09.141Z,31.39
2017-06-05T13:19:21.369Z,31.17
2017-06-05T13:20:33.908Z,31
2017-06-05T13:21:46.454Z,30.77
2017-06-05T13:22:58.996Z,30.7
2017-06-05T13:24:11.524Z,30.52
2017-06-05T13:25:24.093Z,30.32
2017-06-05T13:26:36.334Z,30.33
2017-06-05T13:27:48.567Z,30.2
2017-06-05T13:29:01.134Z,30.06
2017-06-05T13:30:13.376Z,30.06
2017-06-05T13:31:25.927Z,30.01
2017-06-05T13:32:38.200Z,30.02
2017-06-05T13:33:50.745Z,30.01
2017-06-05T13:35:02.988Z,30.03
2017-06-05T13:36:14.638Z,29.92
2017-06-05T13:37:27.201Z,29.86
2017-06-05T13:38:39.743Z,29.8
2017-06-05T13:39:52.279Z,29.74
2017-06-05T13:41:04.823Z,29.58
2017-06-05T13:42:16.781Z,29.64
2017-06-05T13:43:29.303Z,29.79
2017-06-05T13:44:41.884Z,29.83
2017-06-05T13:45:54.455Z,29.86
2017-06-05T13:47:07.002Z,30.1
2017-06-05T13:48:19.568Z,30.17
2017-06-05T13:49:32.115Z,30.35
2017-06-05T13:50:44.361Z,30.27
2017-06-05T13:51:56.882Z,30.33
2017-06-05T13:53:09.448Z,30.27
2017-06-05T13:54:22.026Z,30.29
2017-06-05T13:55:34.287Z,30.21
2017-06-05T13:56:47.090Z,30.2
2017-06-05T13:57:59.630Z,30.31
2017-06-05T13:59:11.606Z,30.39
2017-06-05T14:00:23.871Z,30.29
2017-06-05T14:01:36.141Z,30.29
2017-06-05T14:02:48.387Z,30.18
2017-06-05T14:04:00.944Z,30.03
2017-06-05T14:05:13.190Z,30.01
2017-06-05T14:06:25.757Z,29.84
2017-06-05T14:07:38.307Z,29.58
2017-06-05T14:08:50.853Z,29.46
2017-06-05T14:10:03.137Z,29.42
2017-06-05T14:11:15.671Z,29.39
2017-06-05T14:12:27.913Z,29.32
2017-06-05T14:13:40.461Z,29.32
2017-06-05T14:14:52.983Z,29.39
2017-06-05T14:16:04.926Z,29.37
2017-06-05T14:17:16.824Z,29.31
2017-06-05T14:18:29.373Z,29.31
2017-06-05T14:19:41.606Z,29.32
2017-06-05T14:20:54.162Z,29.2
2017-06-05T14:22:06.725Z,29.18
2017-06-05T14:23:19.267Z,29
2017-06-05T14:24:31.500Z,28.97
2017-06-05T14:25:44.042Z,29
2017-06-05T14:26:56.583Z,28.84
2017-06-05T14:28:08.229Z,28.77
2017-06-05T14:29:20.510Z,28.65
2017-06-05T14:30:33.079Z,28.49
2017-06-05T14:31:45.625Z,28.5
2017-06-05T14:32:58.167Z,28.31
2017-06-05T14:34:10.434Z,28.16
2017-06-05T14:35:23.005Z,28.15
2017-06-05T14:36:35.533Z,28.04
2017-06-05T14:37:47.823Z,27.86
2017-06-05T14:39:00.402Z,27.82
2017-06-05T14:40:12.659Z,27.79
2017-06-05T14:41:24.607Z,27.5
2017-06-05T14:42:37.138Z,27.44
2017-06-05T14:43:49.086Z,27.3
2017-06-05T14:45:01.595Z,27.29
2017-06-05T14:46:14.132Z,27.37
2017-06-05T14:47:26.421Z,27.3
2017-06-05T14:48:38.367Z,27.37
2017-06-05T14:49:50.906Z,27.2
2017-06-05T14:51:03.481Z,27.19
2017-06-05T14:52:15.698Z,27.01
2017-06-05T14:53:28.240Z,27
2017-06-05T14:54:40.494Z,26.93
2017-06-05T14:55:53.041Z,26.85
2017-06-05T14:57:05.586Z,26.85
2017-06-05T14:58:17.787Z,26.79
2017-06-05T14:59:29.731Z,26.71
2017-06-05T15:00:41.969Z,26.59
2017-06-05T15:01:54.496Z,26.51
2017-06-05T15:03:07.043Z,26.45
2017-06-05T15:04:19.003Z,26.33
2017-06-05T15:05:30.650Z,26.29
2017-06-05T15:06:42.877Z,26.24
2017-06-05T15:07:55.130Z,26.08
2017-06-05T15:09:07.391Z,26.08
2017-06-05T15:10:19.621Z,25.95
2017-06-05T15:11:31.567Z,25.93
2017-06-05T15:12:44.061Z,25.83
2017-06-05T15:13:56.324Z,25.74
2017-06-05T15:15:08.869Z,25.67
2017-06-05T15:16:20.821Z,25.56
2017-06-05T15:17:33.058Z,25.52
2017-06-05T15:18:45.336Z,25.41
2017-06-05T15:19:57.865Z,25.33
2017-06-05T15:21:10.109Z,25.34
2017-06-05T15:22:22.080Z,25.25
2017-06-05T15:23:34.301Z,25.16
2017-06-05T15:24:45.647Z,25.06
2017-06-05T15:25:57.909Z,25.03
2017-06-05T15:27:10.142Z,25.07
2017-06-05T15:28:22.708Z,24.97
2017-06-05T15:29:34.668Z,24.85
2017-06-05T15:30:47.201Z,24.81
2017-06-05T15:31:59.746Z,24.75
2017-06-05T15:33:12.285Z,24.55
2017-06-05T15:34:24.830Z,24.5
2017-06-05T15:35:37.055Z,24.26
2017-06-05T15:36:49.569Z,24.16